Time;durP1;ratioP1;P1;durP2;ratioP2;P2;SDS_P1;SDS_P2;PMS_P1;PMS_P2;Temp;Humidity;BMP_temperature;BMP_pressure;BME280_temperature;BME280_humidity;BME280_pressure;Samples;Min_cycle;Max_cycle;Signal;HPM_P1;HPM_P2
2023/09/02 00:00:05;;;;;;;1.10;0.45;;;;;;;18.45;90.15;100277.19;10340470;28;20684;-52
2023/09/02 00:05:07;;;;;;;1.65;0.45;;;;;;;18.42;90.51;100275.72;10352395;28;20054;-54
2023/09/02 00:10:09;;;;;;;1.00;0.60;;;;;;;18.34;89.77;100279.25;10355080;28;20608;-53
2023/09/02 00:15:10;;;;;;;1.00;0.40;;;;;;;18.29;89.85;100276.25;10338590;28;20187;-54
2023/09/02 00:20:12;;;;;;;2.22;0.82;;;;;;;18.24;89.62;100281.31;10350292;28;20072;-53
2023/09/02 00:25:13;;;;;;;1.52;0.60;;;;;;;18.22;90.15;100286.03;10350739;28;20722;-54
2023/09/02 00:30:15;;;;;;;0.82;0.50;;;;;;;18.21;90.95;100295.16;10353012;28;20861;-53
2023/09/02 00:35:17;;;;;;;2.50;0.77;;;;;;;18.14;90.93;100294.16;10324703;28;20058;-54
2023/09/02 00:40:20;;;;;;;0.60;0.40;;;;;;;18.12;91.06;100290.75;10346153;28;20049;-52
2023/09/02 00:45:23;;;;;;;1.75;0.40;;;;;;;18.14;91.17;100289.59;10298605;28;20071;-53
2023/09/02 00:50:24;;;;;;;0.60;0.30;;;;;;;18.08;90.92;100281.38;10343231;28;20053;-54
2023/09/02 00:55:26;;;;;;;2.33;0.50;;;;;;;18.08;91.02;100278.69;10344130;28;20064;-53
2023/09/02 01:00:28;;;;;;;1.17;0.47;;;;;;;18.10;90.97;100295.50;10304513;28;20060;-53
2023/09/02 01:05:29;;;;;;;0.60;0.40;;;;;;;18.00;90.97;100291.13;10329063;28;20615;-53
2023/09/02 01:10:36;;;;;;;0.88;0.60;;;;;;;18.05;90.78;100303.25;10343025;28;20497;-53
2023/09/02 01:15:38;;;;;;;0.85;0.60;;;;;;;18.02;91.15;100302.56;10341703;28;20064;-55
2023/09/02 01:21:09;;;;;;;0.75;0.60;;;;;;;17.99;91.15;100308.31;10339944;28;20061;-54
2023/09/02 01:26:29;;;;;;;1.85;0.82;;;;;;;17.91;91.28;100296.69;10341229;28;20053;-52
2023/09/02 01:31:33;;;;;;;2.00;1.05;;;;;;;17.85;91.35;100308.97;10319390;28;20048;-54
2023/09/02 01:36:35;;;;;;;1.10;1.00;;;;;;;17.92;91.64;100328.00;10342940;28;20184;-53
2023/09/02 01:41:38;;;;;;;2.80;1.07;;;;;;;17.90;91.57;100343.50;10342288;28;20060;-53
2023/09/02 01:46:40;;;;;;;1.23;0.80;;;;;;;17.89;91.56;100344.47;10342258;28;20073;-53
2023/09/02 01:51:43;;;;;;;1.25;0.80;;;;;;;17.87;91.44;100330.34;10344473;28;20084;-53
2023/09/02 01:56:46;;;;;;;1.45;1.13;;;;;;;17.84;91.66;100342.28;10330486;28;20046;-53
2023/09/02 02:01:47;;;;;;;1.15;0.70;;;;;;;17.83;91.65;100345.97;10338513;28;20115;-54
2023/09/02 02:06:53;;;;;;;0.80;0.60;;;;;;;17.80;91.83;100338.25;10331398;28;20218;-54
2023/09/02 02:11:56;;;;;;;1.05;0.65;;;;;;;17.76;91.92;100336.88;10346469;28;20045;-54
2023/09/02 02:17:02;;;;;;;0.93;0.50;;;;;;;17.74;92.34;100339.75;10322480;28;20196;-56
2023/09/02 02:22:04;;;;;;;1.50;1.00;;;;;;;17.66;92.23;100331.69;10341050;28;21174;-54
2023/09/02 02:27:07;;;;;;;1.58;0.70;;;;;;;17.69;91.90;100350.19;10341849;28;20290;-53
2023/09/02 02:32:08;;;;;;;1.60;1.00;;;;;;;17.67;92.51;100346.84;10339132;28;20593;-52
2023/09/02 02:37:10;;;;;;;0.70;0.50;;;;;;;17.66;92.78;100359.44;10327022;28;20080;-54
2023/09/02 02:42:14;;;;;;;1.45;0.73;;;;;;;17.67;92.78;100361.13;10320205;28;20469;-53
2023/09/02 02:47:16;;;;;;;0.80;0.60;;;;;;;17.64;92.99;100363.31;10341742;28;20045;-53
2023/09/02 02:52:17;;;;;;;1.73;0.70;;;;;;;17.65;92.78;100360.47;10334787;28;20053;-55
2023/09/02 02:57:19;;;;;;;1.48;0.80;;;;;;;17.65;93.10;100365.00;10338555;28;20489;-53
2023/09/02 03:02:20;;;;;;;1.00;0.60;;;;;;;17.64;93.42;100363.31;10339110;28;20125;-53
2023/09/02 03:07:22;;;;;;;2.65;1.02;;;;;;;17.67;93.63;100374.59;10340220;28;20288;-53
2023/09/02 03:12:23;;;;;;;0.93;0.75;;;;;;;17.70;94.08;100372.56;10331460;28;20167;-54
2023/09/02 03:17:25;;;;;;;1.00;0.85;;;;;;;17.70;94.02;100381.50;10317433;28;20081;-53
2023/09/02 03:22:28;;;;;;;1.85;1.10;;;;;;;17.70;94.05;100386.00;10337522;28;20041;-54
2023/09/02 03:27:30;;;;;;;1.27;0.90;;;;;;;17.73;94.23;100383.00;10337142;28;20076;-54
2023/09/02 03:32:31;;;;;;;0.82;0.60;;;;;;;17.70;94.70;100377.94;10337517;28;20049;-53
2023/09/02 03:37:33;;;;;;;1.10;0.75;;;;;;;17.77;94.75;100387.88;10328853;28;20068;-53
2023/09/02 03:42:34;;;;;;;2.08;0.73;;;;;;;17.77;94.96;100389.72;10340893;28;20065;-53
2023/09/02 03:47:36;;;;;;;1.55;0.57;;;;;;;17.77;95.23;100384.34;10345643;28;20546;-53
2023/09/02 03:52:38;;;;;;;2.00;0.40;;;;;;;17.82;95.56;100398.16;10339234;28;20081;-53
2023/09/02 03:57:41;;;;;;;1.83;0.47;;;;;;;17.84;95.88;100406.91;10342271;28;21087;-53
2023/09/02 04:02:43;;;;;;;1.30;0.80;;;;;;;17.86;95.76;100404.88;10319763;28;20129;-53
2023/09/02 04:07:44;;;;;;;0.50;0.50;;;;;;;17.89;95.88;100404.56;10325445;28;20068;-53
2023/09/02 04:12:46;;;;;;;1.52;0.85;;;;;;;17.94;96.09;100407.63;10349731;28;20068;-52
2023/09/02 04:17:47;;;;;;;1.20;0.75;;;;;;;17.96;95.85;100400.19;10336958;28;20056;-53
2023/09/02 04:22:49;;;;;;;1.13;0.65;;;;;;;17.97;96.10;100395.66;10324315;28;20804;-53
2023/09/02 04:27:51;;;;;;;1.38;0.90;;;;;;;17.97;95.87;100396.50;10343013;28;20135;-52
2023/09/02 04:32:52;;;;;;;1.00;0.82;;;;;;;17.92;95.88;100401.53;10332358;28;20159;-52
2023/09/02 04:37:54;;;;;;;1.60;1.15;;;;;;;17.98;95.89;100417.03;10342048;28;20053;-54
2023/09/02 04:42:56;;;;;;;3.30;1.38;;;;;;;17.99;96.11;100421.41;10348182;28;20837;-55
2023/09/02 04:47:57;;;;;;;1.42;1.17;;;;;;;17.99;96.36;100413.34;10320499;28;20489;-53
2023/09/02 04:52:59;;;;;;;1.45;1.33;;;;;;;18.00;95.84;100428.50;10347208;28;20064;-54
2023/09/02 04:58:01;;;;;;;1.38;1.27;;;;;;;17.99;96.43;100426.81;10345928;28;20054;-53
2023/09/02 05:03:03;;;;;;;1.95;1.33;;;;;;;18.00;96.59;100428.50;10343973;28;20598;-53
2023/09/02 05:08:04;;;;;;;2.15;1.35;;;;;;;17.95;96.43;100419.22;10344031;28;20702;-53
2023/09/02 05:13:06;;;;;;;1.48;1.33;;;;;;;18.02;96.49;100437.22;10347662;28;20417;-54
2023/09/02 05:18:08;;;;;;;1.98;1.10;;;;;;;18.01;95.74;100423.94;10333880;28;20077;-54
2023/09/02 05:23:12;;;;;;;3.20;1.67;;;;;;;18.05;96.30;100425.28;10321697;28;20053;-54
2023/09/02 05:28:14;;;;;;;2.95;1.17;;;;;;;18.07;96.16;100422.44;10342994;28;20188;-53
2023/09/02 05:33:16;;;;;;;2.80;1.77;;;;;;;18.08;96.21;100427.66;10333464;28;20058;-53
2023/09/02 05:38:18;;;;;;;1.42;1.00;;;;;;;18.09;96.41;100425.78;10343151;28;20084;-53
2023/09/02 05:43:19;;;;;;;1.75;1.38;;;;;;;18.12;96.66;100430.84;10334517;28;20469;-52
2023/09/02 05:48:21;;;;;;;1.40;1.10;;;;;;;18.07;96.89;100425.13;10345424;28;20052;-53
2023/09/02 05:53:23;;;;;;;2.17;1.10;;;;;;;18.14;97.22;100447.69;10340739;28;20077;-53
2023/09/02 05:58:26;;;;;;;1.65;1.55;;;;;;;18.17;97.20;100444.66;10311672;28;20398;-54
2023/09/02 06:03:27;;;;;;;1.88;1.30;;;;;;;18.17;96.75;100455.44;10340421;28;20046;-54
2023/09/02 06:08:29;;;;;;;1.80;1.70;;;;;;;18.19;96.69;100456.09;10336539;28;20060;-53
2023/09/02 06:13:31;;;;;;;2.78;2.13;;;;;;;18.20;97.37;100455.09;10338111;28;20060;-53
2023/09/02 06:18:33;;;;;;;3.70;3.40;;;;;;;17.89;95.44;100431.50;10336759;28;20076;-53
2023/09/02 06:23:35;;;;;;;4.05;2.80;;;;;;;18.13;96.70;100454.91;10340374;28;20060;-52
2023/09/02 06:28:36;;;;;;;3.53;3.10;;;;;;;18.12;96.30;100447.00;10335645;28;20065;-52
2023/09/02 06:33:38;;;;;;;5.30;4.78;;;;;;;18.10;96.13;100438.25;10321581;28;20088;-53
2023/09/02 06:38:39;;;;;;;5.78;5.18;;;;;;;18.20;95.63;100463.19;10322062;28;20134;-53
2023/09/02 06:43:41;;;;;;;5.10;4.60;;;;;;;18.10;95.34;100465.19;10331850;28;20690;-52
2023/09/02 06:48:44;;;;;;;3.63;3.33;;;;;;;18.15;95.31;100463.69;10323085;28;20108;-53
2023/09/02 06:53:46;;;;;;;2.60;2.40;;;;;;;18.20;95.09;100472.09;10320583;28;20668;-54
2023/09/02 06:58:47;;;;;;;2.42;2.17;;;;;;;18.28;95.36;100479.31;10321608;28;20060;-52
2023/09/02 07:03:49;;;;;;;2.45;2.20;;;;;;;18.37;95.44;100477.47;10318657;28;20140;-52
2023/09/02 07:08:51;;;;;;;2.05;1.92;;;;;;;18.12;94.87;100452.38;10305123;28;20051;-53
2023/09/02 07:13:52;;;;;;;2.80;2.60;;;;;;;18.38;94.47;100506.13;10333756;28;20092;-53
2023/09/02 07:18:54;;;;;;;3.15;2.90;;;;;;;18.41;93.33;100511.16;10334501;28;20049;-53
2023/09/02 07:23:56;;;;;;;2.80;2.60;;;;;;;18.37;93.41;100516.06;10311182;28;20045;-53
2023/09/02 07:28:59;;;;;;;1.40;1.30;;;;;;;18.44;93.89;100526.16;10328789;28;20053;-53
2023/09/02 07:34:00;;;;;;;2.85;1.70;;;;;;;18.48;94.54;100530.19;10317147;28;20057;-53
2023/09/02 07:39:02;;;;;;;2.65;1.60;;;;;;;18.50;94.16;100520.94;10328473;28;20467;-52
2023/09/02 07:44:04;;;;;;;2.10;1.88;;;;;;;18.48;94.05;100519.41;10328435;28;20522;-52
2023/09/02 07:49:06;;;;;;;4.20;2.75;;;;;;;18.64;93.52;100542.84;10314144;28;20506;-52
2023/09/02 07:54:07;;;;;;;2.50;2.30;;;;;;;18.70;93.58;100550.25;10338996;28;20053;-53
2023/09/02 07:59:09;;;;;;;4.00;3.70;;;;;;;18.64;93.30;100549.06;10326466;28;20478;-53
2023/09/02 08:04:10;;;;;;;3.92;3.63;;;;;;;18.70;93.75;100564.56;10322351;28;20057;-54
2023/09/02 08:09:12;;;;;;;4.30;4.00;;;;;;;18.74;93.04;100565.09;10323956;28;20041;-53
2023/09/02 08:14:14;;;;;;;3.63;3.33;;;;;;;18.81;93.49;100584.09;10331100;28;20120;-53
2023/09/02 08:19:15;;;;;;;4.88;4.47;;;;;;;18.71;93.07;100544.69;10343450;28;20120;-52
2023/09/02 08:24:17;;;;;;;4.95;4.13;;;;;;;18.99;92.32;100563.25;10341942;28;20042;-54
2023/09/02 08:29:19;;;;;;;4.30;4.00;;;;;;;19.07;92.36;100568.59;10344528;28;20858;-52
2023/09/02 08:34:21;;;;;;;3.67;3.33;;;;;;;19.07;91.64;100559.69;10338290;28;20054;-54
2023/09/02 08:39:22;;;;;;;4.22;2.63;;;;;;;19.32;91.34;100584.75;10331055;28;20053;-54
2023/09/02 08:44:28;;;;;;;2.78;2.58;;;;;;;19.38;91.11;100578.66;10339294;28;20088;-54
2023/09/02 08:49:31;;;;;;;2.50;2.30;;;;;;;19.49;89.51;100590.09;10340260;28;20060;-54
2023/09/02 08:54:34;;;;;;;1.90;1.80;;;;;;;19.50;89.66;100579.13;10324738;28;20064;-53
2023/09/02 08:59:36;;;;;;;2.03;1.83;;;;;;;19.64;89.55;100564.06;10321812;28;20099;-54
2023/09/02 09:04:38;;;;;;;1.70;1.60;;;;;;;19.82;88.25;100579.22;10340103;28;20136;-54
2023/09/02 09:09:42;;;;;;;1.85;1.50;;;;;;;20.04;88.22;100577.56;10321294;28;20764;-51
2023/09/02 09:14:46;;;;;;;1.58;1.20;;;;;;;20.54;86.56;100591.59;10340112;28;20096;-53
2023/09/02 09:19:48;;;;;;;1.10;1.00;;;;;;;20.74;84.00;100586.56;10337116;28;20049;-53
2023/09/02 09:24:50;;;;;;;1.58;0.65;;;;;;;20.90;83.63;100583.72;10305091;28;20443;-53
2023/09/02 09:29:51;;;;;;;1.30;0.70;;;;;;;21.05;82.13;100575.63;10339426;28;20096;-54
2023/09/02 09:34:53;;;;;;;1.17;0.90;;;;;;;21.29;81.18;100585.34;10335333;28;21415;-55
2023/09/02 09:39:54;;;;;;;0.98;0.70;;;;;;;21.53;80.68;100600.50;10308773;28;20254;-45
2023/09/02 09:44:57;;;;;;;0.82;0.80;;;;;;;21.87;79.10;100595.53;10330926;28;20067;-47
2023/09/02 09:50:16;;;;;;;1.63;0.50;;;;;;;22.05;78.86;100595.13;10331382;28;20167;-46
2023/09/02 09:55:24;;;;;;;0.73;0.20;;;;;;;22.37;76.86;100607.41;10338547;28;21148;-45
2023/09/02 10:00:27;;;;;;;1.05;0.20;;;;;;;22.59;76.68;100604.69;10344795;28;20142;-46
2023/09/02 10:05:31;;;;;;;1.30;0.28;;;;;;;22.81;75.58;100600.09;10320936;28;20053;-44
2023/09/02 10:10:37;;;;;;;0.60;0.32;;;;;;;22.91;72.01;100602.47;10332238;28;20084;-46
2023/09/02 10:15:39;;;;;;;1.15;0.30;;;;;;;22.95;72.94;100610.03;10337733;28;20062;-45
2023/09/02 10:20:41;;;;;;;1.60;0.20;;;;;;;23.26;73.48;100600.66;10333028;28;20338;-44
2023/09/02 10:25:57;;;;;;;0.83;0.47;;;;;;;23.54;69.03;100623.41;10311319;28;20056;-46
2023/09/02 10:30:59;;;;;;;1.13;0.65;;;;;;;23.57;69.89;100613.00;10327181;28;20049;-45
2023/09/02 10:36:05;;;;;;;1.67;0.33;;;;;;;23.58;69.69;100601.06;10331170;28;20540;-46
2023/09/02 10:41:13;;;;;;;0.90;0.20;;;;;;;23.72;69.29;100604.69;10326541;28;20064;-46
2023/09/02 10:46:15;;;;;;;0.93;0.13;;;;;;;24.03;70.19;100595.22;10328175;28;20057;-46
2023/09/02 10:51:17;;;;;;;1.05;0.30;;;;;;;24.22;68.56;100582.75;10295692;28;20077;-47
2023/09/02 10:56:33;;;;;;;4.63;0.47;;;;;;;24.52;68.38;100585.09;10328745;28;20058;-46
2023/09/02 11:01:49;;;;;;;0.65;0.20;;;;;;;24.83;66.46;100586.38;10314725;28;20049;-46
2023/09/02 11:07:19;;;;;;;0.20;0.10;;;;;;;25.14;65.79;100591.19;10326162;28;20163;-46
2023/09/02 11:12:21;;;;;;;1.38;0.43;;;;;;;25.44;65.25;100584.47;10322225;28;20053;-46
2023/09/02 11:17:29;;;;;;;0.45;0.10;;;;;;;25.63;63.40;100580.00;10317228;28;20421;-47
2023/09/02 11:23:01;;;;;;;1.83;0.30;;;;;;;25.93;62.07;100577.56;10335432;28;20053;-46
2023/09/02 11:28:08;;;;;;;0.60;0.40;;;;;;;26.16;60.09;100581.69;10321198;28;20058;-47
2023/09/02 11:33:09;;;;;;;0.40;0.13;;;;;;;26.29;60.21;100571.50;10344576;28;20049;-46
2023/09/02 11:38:21;;;;;;;1.30;0.17;;;;;;;26.63;59.18;100579.47;10331187;28;20057;-47
2023/09/02 11:43:22;;;;;;;0.70;0.10;;;;;;;26.69;57.89;100559.47;10316155;28;20053;-45
2023/09/02 11:48:25;;;;;;;0.80;0.20;;;;;;;27.12;56.87;100585.16;10330217;28;20057;-45
2023/09/02 11:53:31;;;;;;;0.30;0.10;;;;;;;27.42;55.94;100585.31;10328430;28;20084;-45
2023/09/02 11:58:33;;;;;;;0.50;0.10;;;;;;;27.61;54.73;100590.75;10317241;28;20963;-46
2023/09/02 12:03:34;;;;;;;0.50;0.20;;;;;;;27.81;53.92;100574.94;10324951;28;20054;-46
2023/09/02 12:08:36;;;;;;;0.30;0.13;;;;;;;27.89;52.87;100570.25;10318065;28;20073;-46
2023/09/02 12:13:39;;;;;;;0.37;0.30;;;;;;;27.98;50.50;100563.41;10326852;28;20050;-46
2023/09/02 12:18:40;;;;;;;0.63;0.20;;;;;;;28.02;51.92;100550.94;10336138;28;20150;-45
2023/09/02 12:23:42;;;;;;;0.93;0.40;;;;;;;28.48;50.07;100565.84;10332028;28;20166;-45
2023/09/02 12:28:49;;;;;;;0.97;0.30;;;;;;;28.57;48.35;100553.47;10332214;28;20219;-49
2023/09/02 12:33:51;;;;;;;0.82;0.20;;;;;;;28.56;48.24;100573.69;10320923;28;20065;-45
2023/09/02 12:38:53;;;;;;;2.05;0.10;;;;;;;28.27;50.99;100569.09;10333370;28;20834;-46
2023/09/02 12:43:55;;;;;;;1.03;0.20;;;;;;;28.43;50.51;100565.69;10329799;28;21246;-46
2023/09/02 12:48:56;;;;;;;0.30;0.10;;;;;;;28.47;48.46;100577.84;10332733;28;20060;-44
2023/09/02 12:54:06;;;;;;;0.40;0.10;;;;;;;28.39;49.97;100589.16;10332167;28;20978;-46
2023/09/02 12:59:07;;;;;;;0.20;0.10;;;;;;;28.28;49.16;100582.53;10329720;28;20576;-46
2023/09/02 13:04:09;;;;;;;0.20;0.00;;;;;;;28.24;49.73;100585.97;10330874;28;20837;-45
2023/09/02 13:09:11;;;;;;;0.20;0.10;;;;;;;28.33;49.85;100593.66;10321609;28;20053;-46
2023/09/02 13:14:14;;;;;;;0.77;0.20;;;;;;;28.27;48.14;100580.03;10328454;28;20053;-45
2023/09/02 13:19:15;;;;;;;0.22;0.10;;;;;;;28.06;48.65;100578.66;10333909;28;20057;-45
2023/09/02 13:24:19;;;;;;;0.95;0.20;;;;;;;27.91;49.91;100581.78;10334185;28;20779;-45
2023/09/02 13:29:25;;;;;;;0.30;0.10;;;;;;;27.67;49.71;100554.31;10312582;28;20124;-45
2023/09/02 13:34:35;;;;;;;0.50;0.10;;;;;;;27.79;48.61;100584.44;10333285;28;20228;-45
2023/09/02 13:39:36;;;;;;;0.63;0.17;;;;;;;27.68;50.09;100581.44;10330190;28;20148;-44
2023/09/02 13:44:38;;;;;;;1.73;0.52;;;;;;;27.64;49.69;100590.34;10334296;28;20068;-44
2023/09/02 13:49:41;;;;;;;1.60;0.20;;;;;;;27.53;50.80;100583.69;10329036;28;20991;-43
2023/09/02 13:54:44;;;;;;;1.10;0.20;;;;;;;27.36;51.06;100564.34;10329878;28;22550;-46
2023/09/02 13:59:45;;;;;;;0.52;0.10;;;;;;;27.42;50.56;100590.78;10307553;28;20208;-44
2023/09/02 14:04:47;;;;;;;1.27;0.20;;;;;;;27.29;48.95;100579.94;10323760;28;20051;-45
2023/09/02 14:09:48;;;;;;;2.42;0.20;;;;;;;27.00;50.92;100585.06;10330405;28;20109;-46
2023/09/02 14:14:51;;;;;;;;;;;;;;;26.79;50.98;100589.84;10331256;28;20166;-45
2023/09/02 14:19:52;;;;;;;2.70;0.30;;;;;;;26.68;52.23;100589.75;10335396;28;20099;-46
2023/09/02 14:24:54;;;;;;;1.60;0.10;;;;;;;26.48;51.78;100563.41;10337584;28;20065;-47
2023/09/02 14:29:55;;;;;;;1.10;0.20;;;;;;;26.39;51.73;100581.09;10316649;28;20111;-45
2023/09/02 14:34:56;;;;;;;1.83;0.70;;;;;;;26.14;52.69;100581.91;10337215;28;20514;-46
2023/09/02 14:39:58;;;;;;;0.70;0.20;;;;;;;26.06;53.34;100583.00;10334247;28;20114;-46
2023/09/02 14:45:02;;;;;;;0.55;0.32;;;;;;;26.04;53.65;100590.53;10331764;28;20723;-46
2023/09/02 14:50:04;;;;;;;0.75;0.10;;;;;;;26.08;53.83;100588.22;10331045;28;20053;-48
2023/09/02 14:55:06;;;;;;;1.00;0.30;;;;;;;26.06;54.01;100591.19;10333893;28;20743;-46
2023/09/02 15:00:12;;;;;;;0.63;0.30;;;;;;;25.95;53.86;100586.38;10315272;28;21381;-46
2023/09/02 15:05:24;;;;;;;0.73;0.30;;;;;;;25.86;53.53;100585.78;10331280;28;20056;-47
2023/09/02 15:10:27;;;;;;;1.00;0.10;;;;;;;25.78;54.18;100586.03;10330106;28;20270;-46
2023/09/02 15:15:38;;;;;;;1.50;0.10;;;;;;;25.75;54.07;100578.28;10324857;28;20050;-46
2023/09/02 15:20:40;;;;;;;0.57;0.25;;;;;;;25.59;53.63;100585.03;10331972;28;20138;-45
2023/09/02 15:25:42;;;;;;;0.40;0.20;;;;;;;25.52;54.45;100586.94;10331592;28;20129;-50
2023/09/02 15:30:44;;;;;;;0.63;0.20;;;;;;;25.51;55.10;100596.19;10329129;28;20053;-51
2023/09/02 15:35:45;;;;;;;1.02;0.10;;;;;;;25.51;54.64;100590.75;10303559;28;20056;-50
2023/09/02 15:40:47;;;;;;;1.48;0.20;;;;;;;25.40;55.13;100567.69;10326973;28;20057;-51
2023/09/02 15:45:48;;;;;;;1.60;0.17;;;;;;;25.55;54.77;100592.81;10328646;28;20236;-50
2023/09/02 15:50:50;;;;;;;0.28;0.20;;;;;;;25.53;54.92;100599.53;10328546;28;20758;-51
2023/09/02 15:55:55;;;;;;;0.38;0.20;;;;;;;25.45;54.82;100597.88;10305674;28;20988;-51
2023/09/02 16:00:56;;;;;;;0.70;0.43;;;;;;;25.45;55.73;100605.22;10330610;28;20073;-51
2023/09/02 16:05:58;;;;;;;1.35;0.30;;;;;;;25.44;56.04;100601.66;10331887;28;20042;-50
2023/09/02 16:11:00;;;;;;;1.25;0.70;;;;;;;25.41;56.23;100607.53;10330519;28;20410;-55
2023/09/02 16:16:01;;;;;;;2.25;0.95;;;;;;;25.35;56.82;100592.84;10331641;28;20198;-51
2023/09/02 16:21:03;;;;;;;0.98;0.38;;;;;;;25.30;56.42;100603.56;10333076;28;20180;-54
2023/09/02 16:26:05;;;;;;;0.88;0.40;;;;;;;25.16;56.82;100575.47;10337093;28;20057;-51
2023/09/02 16:31:06;;;;;;;1.17;0.98;;;;;;;25.22;57.68;100593.69;10328894;28;20049;-50
2023/09/02 16:36:09;;;;;;;1.27;1.08;;;;;;;25.19;57.73;100594.13;10327144;28;20123;-52
2023/09/02 16:41:11;;;;;;;1.48;0.50;;;;;;;25.13;57.72;100594.97;10339903;28;21423;-51
2023/09/02 16:46:13;;;;;;;0.80;0.45;;;;;;;25.11;58.48;100586.16;10302340;28;20418;-52
2023/09/02 16:51:16;;;;;;;0.83;0.30;;;;;;;24.98;58.55;100569.84;10335134;28;21807;-52
2023/09/02 16:56:21;;;;;;;1.20;0.65;;;;;;;24.97;59.27;100579.91;10336476;28;20080;-52
2023/09/02 17:01:23;;;;;;;0.70;0.38;;;;;;;24.85;58.77;100576.16;10320261;28;20100;-51
2023/09/02 17:06:25;;;;;;;0.73;0.47;;;;;;;24.80;59.03;100575.91;10337770;28;20081;-52
2023/09/02 17:11:27;;;;;;;2.95;0.38;;;;;;;24.80;60.23;100578.63;10321344;28;20073;-51
2023/09/02 17:16:28;;;;;;;2.13;0.95;;;;;;;24.73;60.13;100575.94;10331893;28;20057;-52
2023/09/02 17:21:31;;;;;;;1.17;1.05;;;;;;;24.72;60.31;100581.59;10333975;28;20217;-51
2023/09/02 17:26:33;;;;;;;2.28;1.95;;;;;;;24.65;60.32;100582.44;10332798;28;21493;-51
2023/09/02 17:31:34;;;;;;;2.22;2.03;;;;;;;24.54;60.92;100580.28;10320113;28;20123;-51
2023/09/02 17:36:36;;;;;;;1.80;1.35;;;;;;;24.55;60.94;100592.03;10293474;28;20070;-51
2023/09/02 17:41:37;;;;;;;1.75;1.20;;;;;;;24.47;61.02;100591.16;10322453;28;20053;-51
2023/09/02 17:46:39;;;;;;;2.45;1.17;;;;;;;24.42;62.34;100593.66;10313339;28;20579;-51
2023/09/02 17:51:40;;;;;;;2.67;1.05;;;;;;;24.34;62.27;100591.13;10329201;28;20248;-52
2023/09/02 17:56:42;;;;;;;2.13;1.23;;;;;;;24.29;62.01;100593.63;10327929;28;20045;-52
2023/09/02 18:01:43;;;;;;;1.85;1.17;;;;;;;24.22;62.12;100590.91;10332766;28;20049;-52
2023/09/02 18:06:45;;;;;;;2.47;1.20;;;;;;;24.17;63.01;100604.28;10307825;28;20079;-57
2023/09/02 18:11:46;;;;;;;2.28;1.40;;;;;;;24.08;64.06;100598.19;10313830;28;20891;-57
2023/09/02 18:16:48;;;;;;;9.60;7.40;;;;;;;24.02;63.65;100607.16;10329034;28;20053;-57
2023/09/02 18:21:49;;;;;;;3.38;1.98;;;;;;;24.00;64.58;100622.81;10330020;28;20681;-57
2023/09/02 18:26:51;;;;;;;1.60;1.50;;;;;;;23.95;64.84;100623.44;10291320;28;20140;-57
2023/09/02 18:31:52;;;;;;;2.00;1.10;;;;;;;23.88;65.20;100625.28;10335202;28;20049;-57
2023/09/02 18:36:54;;;;;;;1.90;1.70;;;;;;;23.84;65.59;100626.72;10330940;28;20042;-63
2023/09/02 18:41:56;;;;;;;2.45;1.85;;;;;;;23.75;65.71;100627.91;10314423;28;20452;-58
2023/09/02 18:46:57;;;;;;;2.85;2.00;;;;;;;23.69;66.22;100631.41;10302134;28;20130;-56
2023/09/02 18:51:59;;;;;;;2.17;1.80;;;;;;;23.71;66.66;100656.53;10314484;28;20127;-56
2023/09/02 18:57:01;;;;;;;2.95;1.80;;;;;;;23.66;66.87;100659.88;10330282;28;20053;-56
2023/09/02 19:02:03;;;;;;;3.88;2.28;;;;;;;23.59;66.49;100658.97;10333247;28;20413;-56
2023/09/02 19:07:04;;;;;;;2.92;2.58;;;;;;;23.46;66.82;100667.88;10317247;28;20057;-57
2023/09/02 19:12:07;;;;;;;23.67;3.22;;;;;;;23.48;66.52;100685.66;10333559;28;20584;-59
2023/09/02 19:17:08;;;;;;;1.77;1.13;;;;;;;23.42;66.32;100691.88;10312155;28;20191;-58
2023/09/02 19:22:10;;;;;;;2.05;1.23;;;;;;;23.41;66.79;100700.22;10308987;28;20819;-56
2023/09/02 19:27:12;;;;;;;3.20;1.73;;;;;;;23.33;67.03;100693.06;10318340;28;20175;-56
2023/09/02 19:32:13;;;;;;;3.88;3.42;;;;;;;23.34;66.67;100718.34;10308534;28;20196;-62
2023/09/02 19:37:15;;;;;;;4.43;4.03;;;;;;;23.19;66.48;100708.38;10326640;28;20176;-57
2023/09/02 19:42:17;;;;;;;5.63;4.47;;;;;;;23.24;67.97;100719.53;10324596;28;20058;-57
2023/09/02 19:47:19;;;;;;;6.85;4.85;;;;;;;23.18;68.70;100728.44;10313837;28;20108;-57
2023/09/02 19:52:21;;;;;;;5.40;3.83;;;;;;;23.11;69.10;100722.13;10313175;28;20050;-56
2023/09/02 19:57:22;;;;;;;4.22;2.90;;;;;;;23.08;68.83;100734.16;10341598;28;20050;-57
2023/09/02 20:02:24;;;;;;;4.63;2.90;;;;;;;23.02;69.78;100744.97;10338422;28;20060;-57
2023/09/02 20:07:26;;;;;;;2.95;2.15;;;;;;;22.95;70.38;100740.31;10341333;28;20053;-58
2023/09/02 20:12:29;;;;;;;2.50;1.90;;;;;;;22.90;70.88;100737.31;10335670;28;20053;-57
2023/09/02 20:17:31;;;;;;;2.20;1.73;;;;;;;22.84;71.17;100751.66;10339832;28;20074;-57
2023/09/02 20:22:33;;;;;;;2.03;1.83;;;;;;;22.79;71.30;100759.56;10323722;28;20084;-56
2023/09/02 20:27:34;;;;;;;4.00;1.90;;;;;;;22.76;72.04;100762.66;10341023;28;20049;-56
2023/09/02 20:32:36;;;;;;;3.10;1.85;;;;;;;22.73;72.80;100763.03;10329125;28;20180;-57
2023/09/02 20:37:38;;;;;;;2.80;1.83;;;;;;;22.66;73.01;100760.25;10325272;28;20072;-56
2023/09/02 20:42:40;;;;;;;3.17;2.38;;;;;;;22.54;74.28;100765.31;10340547;28;20050;-56
2023/09/02 20:47:41;;;;;;;2.35;2.00;;;;;;;22.55;74.78;100772.44;10341160;28;20057;-57
2023/09/02 20:52:43;;;;;;;2.58;1.98;;;;;;;22.42;75.01;100758.69;10326370;28;20130;-59
2023/09/02 20:57:45;;;;;;;2.08;1.80;;;;;;;22.45;75.19;100779.19;10341300;28;20053;-56
2023/09/02 21:02:46;;;;;;;2.30;1.60;;;;;;;22.39;75.83;100783.47;10339398;28;20077;-57
2023/09/02 21:07:48;;;;;;;2.78;2.30;;;;;;;22.34;75.98;100780.47;10339512;28;20231;-57
2023/09/02 21:12:50;;;;;;;1.95;1.75;;;;;;;22.27;76.31;100779.53;10325825;28;20140;-56
2023/09/02 21:17:51;;;;;;;3.35;2.13;;;;;;;22.25;77.03;100790.56;10339887;28;20141;-54
2023/09/02 21:22:53;;;;;;;2.70;2.15;;;;;;;22.23;77.65;100801.59;10346138;28;20045;-57
2023/09/02 21:27:54;;;;;;;3.85;1.70;;;;;;;22.19;77.39;100799.47;10352311;28;20125;-58
2023/09/02 21:32:56;;;;;;;2.60;1.83;;;;;;;22.17;77.50;100791.50;10333283;28;20181;-57
2023/09/02 21:37:57;;;;;;;2.13;1.80;;;;;;;22.12;77.71;100793.94;10328290;28;20131;-56
2023/09/02 21:42:58;;;;;;;1.67;1.58;;;;;;;22.06;78.00;100789.25;10348184;28;20050;-57
2023/09/02 21:48:00;;;;;;;4.22;1.92;;;;;;;21.96;78.31;100788.69;10339473;28;20061;-56
2023/09/02 21:53:01;;;;;;;2.72;2.22;;;;;;;21.99;77.66;100793.72;10349845;28;20061;-57
2023/09/02 21:58:03;;;;;;;2.58;1.90;;;;;;;21.73;78.46;100765.19;10348495;28;20150;-57
2023/09/02 22:03:05;;;;;;;4.65;2.03;;;;;;;21.92;78.52;100792.78;10347586;28;20168;-57
2023/09/02 22:08:07;;;;;;;4.20;2.60;;;;;;;21.85;78.99;100793.53;10345500;28;20385;-57
2023/09/02 22:13:08;;;;;;;3.38;2.25;;;;;;;21.87;79.30;100799.63;10327485;28;20068;-58
2023/09/02 22:18:10;;;;;;;3.95;2.92;;;;;;;21.83;79.16;100790.16;10347652;28;20077;-57
2023/09/02 22:23:14;;;;;;;3.35;2.85;;;;;;;21.78;79.53;100803.41;10349252;28;20099;-57
2023/09/02 22:28:17;;;;;;;4.72;3.40;;;;;;;21.72;79.54;100804.16;10307150;28;20099;-58
2023/09/02 22:33:18;;;;;;;3.60;3.30;;;;;;;21.70;80.62;100811.63;10347214;28;20056;-58
2023/09/02 22:38:21;;;;;;;4.47;4.07;;;;;;;21.61;80.58;100802.72;10343060;28;20053;-57
2023/09/02 22:43:35;;;;;;;5.38;3.55;;;;;;;21.56;80.77;100798.88;10345590;28;20100;-57
2023/09/02 22:48:37;;;;;;;4.30;3.90;;;;;;;21.61;80.84;100810.84;10340246;28;20060;-57
2023/09/02 22:53:38;;;;;;;5.40;3.50;;;;;;;21.53;81.28;100809.06;10341149;28;20053;-57
2023/09/02 22:58:41;;;;;;;4.60;2.92;;;;;;;21.50;81.33;100816.72;10318118;28;20057;-57
2023/09/02 23:03:43;;;;;;;3.65;2.88;;;;;;;21.52;81.17;100831.75;10330185;28;20045;-57
2023/09/02 23:08:45;;;;;;;2.85;2.65;;;;;;;21.39;81.95;100820.63;10330674;28;20772;-62